Time;durP1;ratioP1;P1;durP2;ratioP2;P2;SDS_P1;SDS_P2;PMS_P1;PMS_P2;Temp;Humidity;BMP_temperature;BMP_pressure;BME280_temperature;BME280_humidity;BME280_pressure;Samples;Min_cycle;Max_cycle;Signal;HPM_P1;HPM_P2
2023/03/17 00:01:54;;;;;;;15.27;8.82;;;4.10;99.90;;;3.14;100.00;97225.06;5025993;28;20061;-74
2023/03/17 00:04:24;;;;;;;14.40;7.88;;;4.10;99.90;;;3.19;100.00;97220.69;5024335;28;20061;-74
2023/03/17 00:06:52;;;;;;;16.67;8.73;;;4.10;99.90;;;3.32;100.00;97223.88;5020068;28;20053;-74
2023/03/17 00:09:21;;;;;;;14.85;7.80;;;4.10;99.90;;;3.36;100.00;97220.41;5036532;28;20475;-75
2023/03/17 00:11:48;;;;;;;14.27;7.80;;;4.10;99.90;;;3.42;100.00;97221.97;5024272;28;20052;-75
2023/03/17 00:14:16;;;;;;;16.02;8.15;;;4.20;99.90;;;3.46;100.00;97218.47;5025387;28;20057;-76
2023/03/17 00:16:48;;;;;;;16.67;9.07;;;4.20;99.90;;;3.29;100.00;97216.25;5009698;28;20045;-74
2023/03/17 00:19:30;;;;;;;14.90;8.10;;;4.10;99.90;;;3.20;100.00;97219.00;5019929;28;20061;-76
2023/03/17 00:21:58;;;;;;;15.88;8.68;;;4.20;99.90;;;3.16;100.00;97209.69;5038120;28;20049;-74
2023/03/17 00:24:27;;;;;;;19.08;9.57;;;4.10;99.90;;;3.28;100.00;97224.81;5040476;28;20046;-74
2023/03/17 00:26:54;;;;;;;20.85;10.80;;;4.10;99.90;;;3.22;100.00;97217.25;5006451;28;20069;-74
2023/03/17 00:29:22;;;;;;;18.50;10.60;;;4.00;99.90;;;3.27;100.00;97211.16;5036675;28;20069;-74
2023/03/17 00:31:49;;;;;;;22.65;10.27;;;4.00;99.90;;;3.22;100.00;97219.81;5039192;28;20210;-74
2023/03/17 00:34:18;;;;;;;19.17;9.93;;;4.00;99.90;;;3.31;100.00;97222.22;5024425;28;20049;-74
2023/03/17 00:36:48;;;;;;;20.75;9.38;;;3.90;99.90;;;3.32;100.00;97216.19;5039051;28;20049;-74
2023/03/17 00:39:17;;;;;;;18.67;9.88;;;3.90;99.90;;;3.30;100.00;97213.66;5024762;28;20072;-74
2023/03/17 00:41:44;;;;;;;18.25;9.57;;;4.00;99.90;;;3.35;100.00;97201.59;5020617;28;20203;-74
2023/03/17 00:44:11;;;;;;;19.02;9.60;;;4.00;99.90;;;3.38;100.00;97210.94;5025238;28;20049;-74
2023/03/17 00:46:40;;;;;;;21.02;9.80;;;4.00;99.90;;;3.42;100.00;97214.28;5040081;28;20059;-75
2023/03/17 00:49:17;;;;;;;17.70;9.82;;;4.00;99.90;;;3.39;100.00;97204.09;5020896;28;20047;-75
2023/03/17 00:51:46;;;;;;;17.65;8.90;;;4.00;99.90;;;3.39;100.00;97193.81;5024383;28;20049;-75
2023/03/17 00:54:14;;;;;;;18.98;8.30;;;4.00;99.90;;;3.44;100.00;97185.16;5022485;28;20049;-75
2023/03/17 00:56:44;;;;;;;14.07;7.50;;;4.10;99.90;;;3.96;100.00;97172.91;5021321;28;20103;-75
2023/03/17 00:59:38;;;;;;;16.85;6.78;;;4.40;99.90;;;4.09;100.00;97173.50;5021876;28;21361;-74
2023/03/17 01:02:05;;;;;;;15.45;6.30;;;4.60;99.90;;;4.04;100.00;97165.91;5015188;28;20449;-75
2023/03/17 01:04:33;;;;;;;10.23;5.95;;;4.60;99.90;;;4.04;100.00;97158.19;5008872;28;20060;-75
2023/03/17 01:07:00;;;;;;;11.90;5.90;;;4.60;99.90;;;3.88;100.00;97159.44;5025222;28;20049;-74
2023/03/17 01:09:29;;;;;;;13.98;5.25;;;4.60;99.90;;;4.37;100.00;97153.13;5027347;28;20077;-74
2023/03/17 01:11:56;;;;;;;6.57;4.00;;;4.70;99.90;;;4.42;100.00;97155.56;5023894;28;20149;-75
2023/03/17 01:14:23;;;;;;;8.60;3.47;;;4.80;99.90;;;4.45;100.00;97145.19;5027431;28;20549;-74
2023/03/17 01:16:53;;;;;;;7.90;3.63;;;4.90;99.90;;;4.79;100.00;97140.91;5043518;28;20052;-75
2023/03/17 01:19:21;;;;;;;5.38;1.83;;;5.30;99.90;;;5.20;100.00;97133.78;5043036;28;20873;-75
2023/03/17 01:21:48;;;;;;;7.05;2.70;;;5.40;99.90;;;5.23;100.00;97128.53;5024188;28;20045;-74
2023/03/17 01:24:15;;;;;;;6.03;2.15;;;5.60;99.90;;;5.32;100.00;97126.59;5027332;28;20066;-77
2023/03/17 01:26:42;;;;;;;5.28;2.10;;;5.70;99.90;;;5.60;100.00;97122.31;5026708;28;20053;-74
2023/03/17 01:29:10;;;;;;;6.22;2.40;;;6.00;99.90;;;5.55;100.00;97118.19;5025967;28;20053;-75
2023/03/17 01:31:36;;;;;;;4.95;2.22;;;6.10;99.90;;;5.50;100.00;97120.06;5028908;28;20476;-75
2023/03/17 01:34:04;;;;;;;8.35;2.25;;;6.10;99.90;;;5.39;100.00;97118.66;5027648;28;20045;-75
2023/03/17 01:36:33;;;;;;;5.80;2.55;;;6.10;99.90;;;5.28;100.00;97132.72;5028381;28;20131;-75
2023/03/17 01:39:00;;;;;;;6.80;2.67;;;6.00;99.90;;;5.08;100.00;97133.28;5027007;28;20526;-75
2023/03/17 01:41:27;;;;;;;7.28;2.70;;;6.00;99.90;;;4.97;100.00;97126.72;5024027;28;20497;-75
2023/03/17 01:43:54;;;;;;;8.93;2.58;;;5.90;99.90;;;4.95;100.00;97127.59;5028266;28;20615;-75
2023/03/17 01:46:34;;;;;;;4.78;2.25;;;5.80;99.90;;;4.85;100.00;97123.63;5024962;28;20103;-74
2023/03/17 01:49:23;;;;;;;5.60;2.30;;;5.70;99.90;;;4.74;100.00;97123.91;5041863;28;20060;-74
2023/03/17 01:52:04;;;;;;;6.35;2.15;;;5.70;99.90;;;4.62;100.00;97125.06;5028154;28;20061;-75
2023/03/17 01:54:49;;;;;;;4.97;2.15;;;5.60;99.90;;;4.52;100.00;97123.63;5028212;28;20081;-75
2023/03/17 01:57:35;;;;;;;5.80;2.22;;;5.50;99.90;;;4.48;100.00;97116.88;5024055;28;20053;-75
2023/03/17 02:00:17;;;;;;;4.95;1.90;;;5.40;99.90;;;4.40;100.00;97110.22;5025296;28;20509;-75
2023/03/17 02:02:51;;;;;;;5.30;2.40;;;5.30;99.90;;;4.30;100.00;97113.03;5022911;28;20577;-75
2023/03/17 02:05:26;;;;;;;4.78;2.20;;;5.30;99.90;;;4.27;100.00;97113.97;5010682;28;20133;-75
2023/03/17 02:07:54;;;;;;;5.50;2.03;;;5.20;99.90;;;4.18;100.00;97109.91;5024991;28;20125;-74
2023/03/17 02:10:26;;;;;;;5.10;2.33;;;5.20;99.90;;;4.08;100.00;97105.88;5026583;28;20053;-75
2023/03/17 02:13:01;;;;;;;4.40;1.95;;;5.10;99.90;;;4.11;100.00;97104.97;5028706;28;20071;-75
2023/03/17 02:15:39;;;;;;;5.40;2.33;;;5.10;99.90;;;3.92;100.00;97099.41;5027273;28;20049;-75
2023/03/17 02:18:08;;;;;;;4.43;2.08;;;5.10;99.90;;;4.07;100.00;97100.78;5027793;28;20068;-74
2023/03/17 02:20:35;;;;;;;6.55;1.83;;;5.00;99.90;;;4.02;100.00;97103.44;5026645;28;20079;-75
2023/03/17 02:23:04;;;;;;;6.45;2.08;;;5.00;99.90;;;4.05;100.00;97103.38;5026967;28;20053;-74
2023/03/17 02:25:35;;;;;;;7.25;2.22;;;4.90;99.90;;;4.14;100.00;97100.56;5025025;28;20064;-74
2023/03/17 02:28:10;;;;;;;7.85;1.80;;;4.90;99.90;;;4.10;100.00;97095.56;5028228;28;20061;-74
2023/03/17 02:30:37;;;;;;;5.20;2.05;;;4.90;99.90;;;4.04;100.00;97099.13;5026323;28;20472;-74
2023/03/17 02:33:04;;;;;;;4.72;1.52;;;4.90;99.90;;;3.74;100.00;97096.41;5024115;28;20121;-74
2023/03/17 02:35:35;;;;;;;4.90;1.50;;;4.80;99.90;;;3.71;100.00;97095.63;5025801;28;20077;-74
2023/03/17 02:38:04;;;;;;;3.85;2.10;;;4.70;99.90;;;3.72;100.00;97105.03;5028002;28;20400;-75
2023/03/17 02:40:32;;;;;;;5.65;2.22;;;4.60;99.90;;;3.64;100.00;97105.19;5041614;28;20491;-75
2023/03/17 02:42:59;;;;;;;4.50;1.83;;;4.60;99.90;;;3.52;100.00;97108.03;5025048;28;20045;-74
2023/03/17 02:45:26;;;;;;;6.22;1.85;;;4.50;99.90;;;3.35;100.00;97106.69;5025426;28;20495;-75
2023/03/17 02:47:54;;;;;;;5.97;2.13;;;4.50;99.90;;;3.33;100.00;97117.81;5027859;28;20056;-74
2023/03/17 02:50:26;;;;;;;5.78;1.80;;;4.40;99.90;;;3.08;100.00;97108.09;5041838;28;20057;-74
2023/03/17 02:52:54;;;;;;;4.05;1.67;;;4.40;99.90;;;3.31;100.00;97117.88;5005090;28;20092;-74
2023/03/17 02:55:25;;;;;;;4.22;1.67;;;4.40;99.90;;;3.35;100.00;97114.38;5024604;28;20056;-74
2023/03/17 02:57:52;;;;;;;4.63;1.70;;;4.30;99.90;;;2.99;100.00;97117.66;5023381;28;20470;-74
2023/03/17 03:00:20;;;;;;;4.80;1.40;;;4.30;99.90;;;2.92;100.00;97112.69;5042000;28;20060;-75
2023/03/17 03:02:47;;;;;;;5.80;1.50;;;4.20;99.90;;;2.90;100.00;97114.44;5026334;28;20125;-74
2023/03/17 03:05:15;;;;;;;2.83;1.33;;;4.10;99.90;;;2.81;100.00;97122.31;5007030;28;20523;-74
2023/03/17 03:07:42;;;;;;;4.43;1.70;;;4.00;99.90;;;2.71;100.00;97121.63;5021678;28;20135;-74
2023/03/17 03:10:10;;;;;;;4.97;1.80;;;3.90;99.90;;;2.78;100.00;97121.50;5021447;28;20046;-75
2023/03/17 03:12:37;;;;;;;4.70;1.65;;;3.90;99.90;;;2.83;100.00;97115.44;5024160;28;20133;-75
2023/03/17 03:15:05;;;;;;;3.47;1.48;;;3.80;99.90;;;2.81;100.00;97124.03;5023895;28;20165;-75
2023/03/17 03:17:32;;;;;;;3.38;1.55;;;3.80;99.90;;;2.88;100.00;97123.88;5023541;28;20447;-74
2023/03/17 03:19:59;;;;;;;3.85;1.40;;;3.80;99.90;;;2.82;100.00;97120.56;5037234;28;20069;-75
2023/03/17 03:22:26;;;;;;;5.18;1.70;;;3.80;99.90;;;2.55;100.00;97121.94;5020411;28;20109;-75
2023/03/17 03:24:53;;;;;;;3.75;1.67;;;3.70;99.90;;;2.45;100.00;97122.09;5023416;28;20484;-75
2023/03/17 03:27:20;;;;;;;3.58;1.52;;;3.60;99.90;;;2.32;100.00;97123.19;5009916;28;20506;-75
2023/03/17 03:29:47;;;;;;;3.88;1.38;;;3.50;99.90;;;2.30;100.00;97128.34;5039335;28;20635;-76
2023/03/17 03:32:15;;;;;;;3.53;1.23;;;3.40;99.90;;;2.45;100.00;97121.25;5026595;28;20550;-75
2023/03/17 03:34:42;;;;;;;3.92;1.20;;;3.40;99.90;;;2.52;100.00;97120.28;5009316;28;20048;-75
2023/03/17 03:37:09;;;;;;;2.47;1.10;;;3.40;99.90;;;2.45;100.00;97109.28;5027806;28;20443;-75
2023/03/17 03:39:37;;;;;;;4.40;1.30;;;3.40;99.90;;;2.36;100.00;97117.13;5025592;28;20045;-75
2023/03/17 03:42:05;;;;;;;5.68;1.38;;;3.30;99.90;;;2.25;100.00;97119.03;5026427;28;20053;-75
2023/03/17 03:44:32;;;;;;;3.97;1.60;;;3.30;99.90;;;2.15;100.00;97126.03;5026634;28;20127;-76
2023/03/17 03:47:00;;;;;;;4.93;1.60;;;3.10;99.90;;;2.02;100.00;97127.94;5026843;28;20069;-75
2023/03/17 03:49:27;;;;;;;8.93;1.83;;;3.10;99.90;;;2.18;100.00;97130.25;5024864;28;20144;-75
2023/03/17 03:51:54;;;;;;;2.95;1.30;;;3.10;99.90;;;1.93;100.00;97134.91;5039272;28;20052;-75
2023/03/17 03:54:22;;;;;;;3.38;1.50;;;3.00;99.90;;;1.87;100.00;97141.81;5025338;28;20124;-75
2023/03/17 03:56:49;;;;;;;2.38;1.20;;;3.00;99.90;;;1.79;100.00;97145.38;5024258;28;20042;-75
2023/03/17 03:59:16;;;;;;;4.32;1.38;;;3.00;99.90;;;1.99;100.00;97138.22;5022789;28;20054;-75
2023/03/17 04:01:44;;;;;;;4.50;1.30;;;3.00;99.90;;;1.56;100.00;97146.53;5025429;28;20049;-75
2023/03/17 04:04:11;;;;;;;3.47;1.60;;;2.90;99.90;;;1.57;100.00;97140.53;5027154;28;20053;-75
2023/03/17 04:06:38;;;;;;;3.15;1.30;;;2.80;99.90;;;1.52;100.00;97146.59;5024541;28;20049;-75
2023/03/17 04:09:05;;;;;;;4.70;1.60;;;2.70;99.90;;;1.67;100.00;97148.94;5024361;28;20133;-75
2023/03/17 04:11:32;;;;;;;3.42;1.50;;;2.70;99.90;;;1.63;100.00;97140.47;5019311;28;20524;-75
2023/03/17 04:13:59;;;;;;;3.45;1.60;;;2.80;99.90;;;1.62;100.00;97150.69;5021698;28;20049;-75
2023/03/17 04:16:27;;;;;;;3.00;1.20;;;2.70;99.90;;;1.47;100.00;97146.66;5020955;28;20045;-76
2023/03/17 04:18:54;;;;;;;2.42;1.25;;;2.70;99.90;;;1.65;100.00;97140.44;5006337;28;20053;-76
2023/03/17 04:21:21;;;;;;;3.65;1.23;;;2.70;99.90;;;1.53;100.00;97138.03;5021785;28;20121;-75
2023/03/17 04:23:48;;;;;;;3.33;1.58;;;2.60;99.90;;;1.58;100.00;97144.81;5021687;28;20050;-75
2023/03/17 04:26:17;;;;;;;4.28;2.05;;;2.60;99.90;;;1.45;100.00;97135.59;5023313;28;20053;-75
2023/03/17 04:28:44;;;;;;;2.55;1.40;;;2.50;99.90;;;1.54;100.00;97145.72;5021364;28;20084;-75
2023/03/17 04:31:11;;;;;;;3.00;1.58;;;2.50;99.90;;;1.64;100.00;97144.72;5020838;28;20415;-75
2023/03/17 04:33:39;;;;;;;4.93;1.38;;;2.50;99.90;;;1.41;100.00;97145.00;5021750;28;20061;-75
2023/03/17 04:36:08;;;;;;;3.00;1.38;;;2.50;99.90;;;1.43;100.00;97145.84;5025539;28;20411;-75
2023/03/17 04:38:36;;;;;;;2.97;1.13;;;2.50;99.90;;;1.31;100.00;97151.13;5037878;28;20091;-75
2023/03/17 04:41:03;;;;;;;4.35;1.67;;;2.40;99.90;;;1.38;100.00;97147.63;5024509;28;20054;-75
2023/03/17 04:43:30;;;;;;;8.77;4.13;;;2.40;99.90;;;1.56;100.00;97153.38;5035948;28;20523;-75
2023/03/17 04:45:57;;;;;;;10.38;5.47;;;2.50;99.90;;;1.62;100.00;97154.13;5026002;28;20073;-75
2023/03/17 04:48:24;;;;;;;11.75;7.18;;;2.50;99.90;;;1.59;100.00;97158.44;5024034;28;20077;-75
2023/03/17 04:50:54;;;;;;;10.30;3.20;;;2.60;99.90;;;1.20;100.00;97161.47;5023966;28;20137;-75
2023/03/17 04:53:22;;;;;;;6.32;3.38;;;2.50;99.90;;;1.18;100.00;97159.81;5022046;28;20057;-75
2023/03/17 04:55:49;;;;;;;4.93;2.35;;;2.40;99.90;;;1.13;100.00;97171.81;5021696;28;20091;-74
2023/03/17 04:58:16;;;;;;;9.02;4.30;;;2.40;99.90;;;1.20;100.00;97170.88;5008875;28;20050;-74
2023/03/17 05:01:01;;;;;;;14.43;6.82;;;2.30;99.90;;;1.32;100.00;97164.75;5024914;28;20050;-74
2023/03/17 05:03:29;;;;;;;7.80;3.80;;;2.30;99.90;;;1.27;100.00;97172.47;5022873;28;20057;-74
2023/03/17 05:05:57;;;;;;;9.38;4.80;;;2.30;99.90;;;1.27;100.00;97167.38;5024927;28;20411;-74
2023/03/17 05:08:27;;;;;;;10.02;5.65;;;2.30;99.90;;;1.32;100.00;97169.88;5036908;28;20061;-75
2023/03/17 05:10:57;;;;;;;4.80;2.05;;;2.30;99.90;;;0.97;100.00;97171.97;5036329;28;20065;-75
2023/03/17 05:13:26;;;;;;;4.47;1.80;;;2.20;99.90;;;0.96;100.00;97167.75;5025090;28;20049;-75
2023/03/17 05:15:55;;;;;;;3.75;1.85;;;2.20;99.90;;;1.02;100.00;97167.66;5022844;28;20437;-74
2023/03/17 05:18:24;;;;;;;8.88;2.00;;;2.20;99.90;;;1.06;100.00;97176.16;5021775;28;20060;-75
2023/03/17 05:20:52;;;;;;;4.53;1.70;;;2.10;99.90;;;1.09;100.00;97172.69;5021062;28;20124;-73
2023/03/17 05:23:21;;;;;;;4.70;1.92;;;2.20;99.90;;;1.03;100.00;97171.91;5040428;28;20061;-74
2023/03/17 05:25:48;;;;;;;7.60;3.30;;;2.10;99.90;;;1.17;100.00;97178.59;5021748;28;20102;-75
2023/03/17 05:28:15;;;;;;;10.80;4.30;;;2.10;99.90;;;1.15;100.00;97164.97;5038407;28;20482;-75
2023/03/17 05:30:43;;;;;;;10.05;4.57;;;2.20;99.90;;;1.19;100.00;97167.47;5040452;28;20052;-74
2023/03/17 05:33:10;;;;;;;12.48;6.07;;;2.20;99.90;;;1.42;100.00;97168.91;5021525;28;20471;-75
2023/03/17 05:35:37;;;;;;;11.75;5.35;;;2.30;99.90;;;1.49;100.00;97157.72;5024029;28;20401;-75
2023/03/17 05:38:05;;;;;;;10.30;5.10;;;2.40;99.90;;;1.66;100.00;97150.63;5033719;28;20431;-75
2023/03/17 05:40:34;;;;;;;9.32;4.72;;;2.50;99.90;;;1.58;100.00;97159.31;5037277;28;20504;-75
2023/03/17 05:43:03;;;;;;;8.65;4.38;;;2.60;99.90;;;1.93;100.00;97148.56;5018301;28;20052;-75
2023/03/17 05:45:32;;;;;;;7.55;3.83;;;2.60;99.90;;;2.06;100.00;97144.09;5024296;28;20057;-75
2023/03/17 05:47:59;;;;;;;10.05;4.00;;;2.70;99.90;;;2.15;100.00;97143.13;5021318;28;20444;-75
2023/03/17 05:50:26;;;;;;;6.68;3.75;;;2.90;99.90;;;2.25;100.00;97142.91;5023690;28;20052;-75
2023/03/17 05:52:53;;;;;;;9.15;4.65;;;2.90;99.90;;;2.29;100.00;97136.03;5024803;28;20065;-75
2023/03/17 05:55:21;;;;;;;10.82;4.38;;;3.00;99.90;;;2.25;100.00;97142.06;5037082;28;20042;-75
2023/03/17 05:57:48;;;;;;;11.73;5.22;;;3.00;99.90;;;2.48;100.00;97134.84;5012274;28;20049;-75
2023/03/17 06:00:17;;;;;;;13.82;7.10;;;3.10;99.90;;;2.45;100.00;97137.47;5023590;28;20293;-75
2023/03/17 06:02:44;;;;;;;16.40;7.93;;;3.10;99.90;;;2.59;100.00;97129.53;5028637;28;20049;-75
2023/03/17 06:05:12;;;;;;;19.35;8.80;;;3.20;99.90;;;2.88;100.00;97133.28;5028097;28;20430;-75
2023/03/17 06:07:40;;;;;;;20.88;9.52;;;3.30;99.90;;;2.96;100.00;97133.13;5029389;28;20049;-75
2023/03/17 06:10:20;;;;;;;15.50;7.55;;;3.40;99.90;;;3.17;100.00;97135.28;5010716;28;20062;-75
2023/03/17 06:12:47;;;;;;;12.13;6.18;;;3.50;99.90;;;3.26;100.00;97136.78;5027627;28;20056;-74
2023/03/17 06:15:15;;;;;;;10.38;5.35;;;3.60;99.90;;;3.70;100.00;97127.31;5023541;28;20050;-74
2023/03/17 06:17:43;;;;;;;8.93;4.47;;;4.00;99.90;;;4.27;100.00;97126.81;5024554;28;20198;-75
2023/03/17 06:20:15;;;;;;;10.20;3.95;;;4.40;99.90;;;4.75;100.00;97100.72;5023974;28;20129;-74
2023/03/17 06:22:42;;;;;;;6.40;2.63;;;5.00;99.90;;;5.78;100.00;97110.59;5026491;28;20050;-75
2023/03/17 06:25:28;;;;;;;9.15;2.08;;;5.70;99.90;;;6.48;100.00;97104.09;5022936;28;20046;-74
2023/03/17 06:27:56;;;;;;;5.65;1.73;;;6.40;99.90;;;6.64;100.00;97097.53;5025049;28;20077;-75
2023/03/17 06:30:23;;;;;;;3.63;1.30;;;7.00;99.90;;;7.43;100.00;97089.53;5026398;28;20041;-75
2023/03/17 06:32:50;;;;;;;3.97;1.50;;;7.50;99.90;;;7.59;100.00;97089.78;5025064;28;20120;-74
2023/03/17 06:35:17;;;;;;;4.82;1.20;;;7.90;99.90;;;7.76;100.00;97064.16;5025986;28;20046;-75
2023/03/17 06:37:44;;;;;;;3.45;1.20;;;8.20;99.90;;;7.86;100.00;97085.28;5024670;28;20445;-75
2023/03/17 06:40:12;;;;;;;5.82;1.27;;;8.40;99.90;;;8.02;100.00;97096.69;5027918;28;20050;-74
2023/03/17 06:42:40;;;;;;;4.18;1.40;;;8.50;99.90;;;7.95;100.00;97092.69;5023207;28;20050;-74
2023/03/17 06:45:08;;;;;;;5.82;1.13;;;8.60;99.90;;;8.35;100.00;97078.97;5041047;28;20053;-74
2023/03/17 06:47:36;;;;;;;2.80;1.13;;;8.80;99.90;;;8.30;100.00;97083.50;5025199;28;20049;-74
2023/03/17 06:50:08;;;;;;;4.75;1.52;;;8.90;99.90;;;8.54;100.00;97099.75;5024227;28;20411;-74
2023/03/17 06:52:36;;;;;;;5.68;1.65;;;9.00;99.90;;;8.44;100.00;97084.69;5021987;28;20439;-74
2023/03/17 06:55:05;;;;;;;5.95;1.77;;;9.10;99.90;;;8.34;100.00;97089.38;5022813;28;20068;-75
2023/03/17 06:57:32;;;;;;;3.75;1.48;;;9.10;99.90;;;8.39;100.00;97087.44;5023237;28;20045;-75
2023/03/17 06:59:59;;;;;;;4.65;1.67;;;9.10;99.90;;;8.57;100.00;97088.44;5019900;28;20046;-74
2023/03/17 07:02:27;;;;;;;4.63;1.70;;;9.20;99.90;;;8.51;100.00;97092.13;5026105;28;20054;-74
2023/03/17 07:04:56;;;;;;;11.35;2.13;;;9.20;99.90;;;8.57;100.00;97098.78;5025743;28;20052;-74
2023/03/17 07:07:24;;;;;;;5.80;1.83;;;9.10;99.90;;;8.61;100.00;97092.59;5024519;28;20062;-75
2023/03/17 07:09:51;;;;;;;3.35;1.40;;;9.20;99.90;;;8.75;100.00;97098.00;5023601;28;20045;-74
2023/03/17 07:12:19;;;;;;;4.57;1.38;;;9.30;99.90;;;8.90;100.00;97099.09;5007295;28;20071;-75
2023/03/17 07:14:46;;;;;;;5.35;1.35;;;9.40;99.90;;;9.01;100.00;97096.06;5037996;28;20120;-74
2023/03/17 07:17:14;;;;;;;7.43;1.83;;;9.50;99.90;;;9.09;100.00;97083.59;5020424;28;20041;-74
2023/03/17 07:19:42;;;;;;;5.82;1.95;;;9.60;99.90;;;9.23;100.00;97105.44;5023646;28;20114;-74
2023/03/17 07:22:11;;;;;;;5.40;1.52;;;9.70;99.90;;;9.27;100.00;97102.66;5020491;28;20049;-74
2023/03/17 07:24:40;;;;;;;5.97;1.50;;;9.90;99.90;;;9.16;100.00;97100.53;5024182;28;20053;-74
2023/03/17 07:27:08;;;;;;;4.47;1.52;;;9.90;99.90;;;9.34;100.00;97091.09;5016157;28;20578;-75
2023/03/17 07:29:35;;;;;;;3.80;1.48;;;9.90;99.90;;;9.31;100.00;97093.00;5017735;28;20056;-74
2023/03/17 07:32:05;;;;;;;4.90;1.70;;;10.00;99.90;;;9.47;100.00;97088.78;5024746;28;20052;-74
2023/03/17 07:34:32;;;;;;;4.45;1.20;;;10.00;99.90;;;9.53;100.00;97093.69;5022524;28;20072;-74
2023/03/17 07:37:00;;;;;;;6.65;1.38;;;10.10;99.90;;;9.67;100.00;97097.38;5023406;28;20130;-75
2023/03/17 07:39:27;;;;;;;3.20;1.35;;;10.30;99.90;;;9.76;100.00;97096.94;5020227;28;20045;-75
2023/03/17 07:41:54;;;;;;;6.38;1.50;;;10.30;99.90;;;10.09;100.00;97093.69;5035522;28;20045;-75
2023/03/17 07:44:23;;;;;;;4.95;1.40;;;10.40;99.90;;;10.04;100.00;97094.75;5018506;28;20754;-74
2023/03/17 07:46:51;;;;;;;4.78;1.42;;;10.60;99.90;;;10.19;100.00;97100.09;5024771;28;20077;-74
2023/03/17 07:49:21;;;;;;;2.28;0.80;;;10.80;99.90;;;10.32;100.00;97083.03;5026262;28;20076;-75
2023/03/17 07:52:08;;;;;;;4.75;1.25;;;10.90;99.90;;;10.60;100.00;97085.09;5022289;28;20420;-74
2023/03/17 07:54:36;;;;;;;3.55;1.25;;;11.00;99.90;;;10.99;100.00;97086.59;5023517;28;20073;-75
2023/03/17 07:57:06;;;;;;;4.57;1.20;;;11.10;99.90;;;11.37;100.00;97093.28;5020625;28;20144;-75
2023/03/17 07:59:34;;;;;;;6.00;1.30;;;11.30;99.90;;;11.43;100.00;97087.75;5035267;28;20188;-75
2023/03/17 08:02:02;;;;;;;4.88;1.10;;;11.60;99.90;;;11.45;100.00;97091.09;5022443;28;20068;-75
2023/03/17 08:04:29;;;;;;;4.50;1.20;;;11.80;99.90;;;11.70;100.00;97093.22;5023510;28;20045;-75
2023/03/17 08:06:56;;;;;;;4.40;1.10;;;12.10;99.90;;;11.82;100.00;97092.53;5040388;28;20132;-75
2023/03/17 08:09:24;;;;;;;5.10;1.35;;;12.50;99.90;;;12.12;100.00;97090.00;5021030;28;20068;-75
2023/03/17 08:11:51;;;;;;;6.50;1.10;;;13.00;99.90;;;12.21;100.00;97104.25;5022393;28;20042;-75
2023/03/17 08:14:18;;;;;;;5.03;1.10;;;13.20;99.90;;;11.88;100.00;97088.75;5023237;28;20060;-75
2023/03/17 08:16:46;;;;;;;3.00;1.00;;;13.20;99.90;;;12.00;100.00;97090.69;5022407;28;20045;-75
2023/03/17 08:19:13;;;;;;;3.20;1.00;;;13.20;99.90;;;11.79;100.00;97073.66;5023143;28;20073;-75
2023/03/17 08:21:40;;;;;;;3.47;1.10;;;13.30;99.90;;;11.81;100.00;97085.63;5021910;28;20187;-75
2023/03/17 08:24:08;;;;;;;7.80;1.60;;;13.40;99.60;;;12.03;100.00;97066.28;5021674;28;20045;-75
2023/03/17 08:26:36;;;;;;;3.13;1.38;;;13.60;99.00;;;12.66;100.00;97083.47;5026851;28;20537;-75
2023/03/17 08:29:04;;;;;;;4.25;1.38;;;14.10;98.70;;;12.35;100.00;97086.09;5019249;28;20601;-73
2023/03/17 08:31:32;;;;;;;4.85;1.10;;;14.10;97.50;;;13.02;100.00;97063.97;5020402;28;20523;-73
2023/03/17 08:34:03;;;;;;;5.78;1.10;;;14.60;98.10;;;13.46;100.00;97060.44;5022607;28;20076;-73
2023/03/17 08:36:30;;;;;;;3.95;1.17;;;14.40;96.90;;;13.56;100.00;97069.34;5020754;28;20148;-72
2023/03/17 08:38:58;;;;;;;3.95;1.17;;;14.60;97.10;;;13.38;100.00;97060.91;5020289;28;20049;-72
2023/03/17 08:41:27;;;;;;;3.17;1.05;;;14.60;97.10;;;13.31;100.00;97054.41;5022463;28;20585;-72
2023/03/17 08:43:55;;;;;;;4.30;1.30;;;14.70;96.90;;;13.90;100.00;97055.00;5034065;28;20041;-73
2023/03/17 08:46:28;;;;;;;3.25;1.00;;;;;;;13.47;100.00;97067.31;5021729;28;20581;-73
2023/03/17 08:48:57;;;;;;;7.63;1.30;;;14.90;95.80;;;13.13;100.00;97053.72;5021960;28;20785;-73
2023/03/17 08:51:31;;;;;;;2.63;1.08;;;14.20;95.80;;;13.44;100.00;97051.88;5035781;28;20060;-73
2023/03/17 08:53:58;;;;;;;2.67;0.90;;;14.50;96.50;;;14.05;100.00;97041.88;5023019;28;20555;-73
2023/03/17 08:56:26;;;;;;;3.78;1.00;;;14.00;95.50;;;13.28;100.00;97036.34;5024507;28;20057;-72
2023/03/17 08:58:54;;;;;;;4.20;1.13;;;14.00;96.70;;;13.09;100.00;97039.19;5021349;28;20484;-73
2023/03/17 09:01:23;;;;;;;4.32;1.38;;;14.20;96.00;;;13.23;100.00;97038.34;5022415;28;20103;-72
2023/03/17 09:03:53;;;;;;;4.30;1.92;;;14.10;95.20;;;13.42;100.00;97045.91;5023530;28;20056;-73
2023/03/17 09:06:21;;;;;;;6.20;1.15;;;14.00;96.20;;;13.13;100.00;97036.31;5038867;28;20045;-72
2023/03/17 09:08:54;;;;;;;5.75;1.75;;;13.90;95.90;;;12.87;100.00;97050.09;5022792;28;20050;-73
2023/03/17 09:11:28;;;;;;;3.92;1.10;;;13.70;95.80;;;12.92;100.00;97037.63;5019748;28;20108;-73
2023/03/17 09:13:55;;;;;;;5.43;0.90;;;13.70;96.30;;;12.86;100.00;97044.03;5021980;28;20527;-73
2023/03/17 09:16:24;;;;;;;3.97;1.10;;;13.70;96.70;;;12.61;100.00;97038.63;5036204;28;20053;-72
2023/03/17 09:18:52;;;;;;;6.03;1.10;;;13.50;96.50;;;13.05;100.00;97042.94;5035938;28;20037;-72
2023/03/17 09:21:20;;;;;;;3.75;1.15;;;13.40;97.30;;;13.15;100.00;97034.44;5020844;28;20049;-72
2023/03/17 09:23:47;;;;;;;6.18;1.48;;;13.60;97.50;;;12.75;100.00;97051.69;5023183;28;20107;-72
2023/03/17 09:26:14;;;;;;;4.65;1.30;;;13.60;96.60;;;12.80;100.00;97031.41;5025298;28;20103;-72
2023/03/17 09:28:42;;;;;;;2.45;0.95;;;13.50;96.70;;;13.00;100.00;97040.63;5025949;28;20166;-72
2023/03/17 09:31:11;;;;;;;3.65;0.90;;;13.40;96.50;;;12.98;100.00;97032.91;5027731;28;20049;-72
2023/03/17 09:33:39;;;;;;;4.07;0.90;;;13.40;96.60;;;12.63;100.00;97063.63;5008284;28;20046;-71
2023/03/17 09:36:09;;;;;;;4.13;1.10;;;13.40;96.30;;;13.05;100.00;97037.75;5038051;28;20046;-72
2023/03/17 09:38:36;;;;;;;12.60;1.40;;;13.30;96.30;;;12.76;100.00;97038.56;5026536;28;20057;-72
2023/03/17 09:41:18;;;;;;;3.05;0.95;;;13.50;96.50;;;13.15;100.00;97046.66;5041180;28;20041;-72
2023/03/17 09:44:33;;;;;;;5.10;1.20;;;13.70;96.50;;;13.41;100.00;97039.88;5025454;28;20565;-72
2023/03/17 09:47:42;;;;;;;3.90;0.90;;;13.60;97.20;;;13.37;100.00;97031.38;5040886;28;20565;-72
2023/03/17 09:50:21;;;;;;;2.97;1.10;;;13.90;96.70;;;13.57;100.00;97044.94;5021209;28;20053;-72
2023/03/17 09:52:51;;;;;;;4.07;0.93;;;13.70;96.20;;;13.71;100.00;97039.69;5025018;28;20052;-73
2023/03/17 09:55:29;;;;;;;4.90;0.82;;;13.80;97.20;;;13.64;100.00;97043.63;5040942;28;20052;-73
2023/03/17 09:57:57;;;;;;;4.10;0.88;;;14.10;96.40;;;13.71;100.00;97039.69;5037181;28;20049;-73
2023/03/17 10:00:29;;;;;;;3.65;0.90;;;14.00;96.00;;;13.68;100.00;97041.66;5009738;28;20090;-73
2023/03/17 10:02:57;;;;;;;4.60;0.98;;;14.30;95.70;;;13.61;100.00;97041.19;5023806;28;20060;-72
2023/03/17 10:05:31;;;;;;;3.10;0.90;;;14.40;95.20;;;13.59;100.00;97040.47;5022228;28;20077;-73
2023/03/17 10:08:29;;;;;;;2.58;0.85;;;14.30;94.70;;;13.71;100.00;97041.47;5023058;28;20147;-73
2023/03/17 10:11:34;;;;;;;2.28;0.77;;;14.10;94.70;;;13.38;100.00;97059.13;5022241;28;20077;-72
2023/03/17 10:14:18;;;;;;;4.05;1.02;;;13.80;94.20;;;13.47;100.00;97069.91;5022300;28;20460;-73
2023/03/17 10:16:52;;;;;;;4.80;0.88;;;13.80;94.30;;;13.52;100.00;97000.91;5026587;28;20046;-73
2023/03/17 10:19:23;;;;;;;4.38;0.88;;;;;;;13.50;100.00;97036.69;5037137;28;20632;-73
2023/03/17 10:22:00;;;;;;;2.38;0.75;;;13.90;98.30;;;13.41;100.00;97036.41;5036595;28;20053;-73
2023/03/17 10:24:31;;;;;;;1.75;0.68;;;14.00;99.90;;;13.53;100.00;97036.47;5038987;28;20131;-73
2023/03/17 10:27:03;;;;;;;3.47;0.90;;;13.90;96.20;;;13.86;100.00;97026.59;5019890;28;20088;-74
2023/03/17 10:29:31;;;;;;;2.85;0.90;;;13.80;94.80;;;13.75;100.00;97027.28;5024558;28;20042;-75
2023/03/17 10:31:59;;;;;;;4.45;1.00;;;13.90;94.80;;;13.51;100.00;97020.09;5021005;28;20041;-74